Time;durP1;ratioP1;P1;durP2;ratioP2;P2;SDS_P1;SDS_P2;PMS_P1;PMS_P2;Temp;Humidity;BMP_temperature;BMP_pressure;BME280_temperature;BME280_humidity;BME280_pressure;Samples;Min_cycle;Max_cycle;Signal;HPM_P1;HPM_P2
2023/08/04 00:00:07;;;;;;;1.20;0.38;;;25.70;36.90;;;;;;6118946;29;20148;-73
2023/08/04 00:03:20;;;;;;;1.00;0.25;;;25.70;36.90;;;;;;6119512;29;20040;-72
2023/08/04 00:06:27;;;;;;;0.45;0.20;;;25.60;36.80;;;;;;6118912;29;20106;-72
2023/08/04 00:09:28;;;;;;;0.32;0.20;;;25.60;36.80;;;;;;6119717;29;20038;-73
2023/08/04 00:12:30;;;;;;;0.08;0.08;;;25.60;36.80;;;;;;6118354;29;20163;-73
2023/08/04 00:15:30;;;;;;;1.55;0.17;;;25.50;36.70;;;;;;6118230;29;20135;-71
2023/08/04 00:18:31;;;;;;;0.70;0.40;;;25.50;36.70;;;;;;6100645;29;20071;-74
2023/08/04 00:21:36;;;;;;;1.63;0.30;;;25.40;36.80;;;;;;6118026;29;20032;-72
2023/08/04 00:24:40;;;;;;;0.30;0.20;;;25.40;36.90;;;;;;6119438;29;20156;-72
2023/08/04 00:27:41;;;;;;;1.48;0.45;;;25.60;37.10;;;;;;6119093;29;20587;-72
2023/08/04 00:30:42;;;;;;;0.13;0.08;;;25.30;37.10;;;;;;6085843;29;20032;-73
2023/08/04 00:33:43;;;;;;;2.67;0.57;;;25.30;37.20;;;;;;6118676;29;20746;-72
2023/08/04 00:36:45;;;;;;;0.50;0.20;;;25.30;37.30;;;;;;6100364;29;20122;-72
2023/08/04 00:39:46;;;;;;;0.50;0.20;;;25.30;37.40;;;;;;6101251;29;20043;-72
2023/08/04 00:42:47;;;;;;;0.10;0.10;;;25.30;37.40;;;;;;6106607;29;20114;-73
2023/08/04 00:45:48;;;;;;;0.88;0.30;;;25.30;37.30;;;;;;6111167;29;20044;-72
2023/08/04 00:48:48;;;;;;;0.30;0.30;;;25.30;37.40;;;;;;6081639;29;20040;-71
2023/08/04 00:51:50;;;;;;;1.90;0.30;;;25.30;37.50;;;;;;6084723;29;20098;-72
2023/08/04 00:54:51;;;;;;;2.05;0.45;;;25.20;37.40;;;;;;6105013;29;20606;-72
2023/08/04 00:57:54;;;;;;;1.25;0.30;;;25.30;37.60;;;;;;6104588;29;20082;-73
2023/08/04 01:00:55;;;;;;;0.85;0.40;;;25.30;37.50;;;;;;6104889;29;20040;-72
2023/08/04 01:03:57;;;;;;;0.25;0.20;;;25.30;37.50;;;;;;6089009;29;20121;-72
2023/08/04 01:07:20;;;;;;;0.43;0.20;;;25.30;37.60;;;;;;6121457;29;20035;-74
2023/08/04 01:10:29;;;;;;;1.10;0.35;;;25.30;37.60;;;;;;6104493;29;20463;-72
2023/08/04 01:13:31;;;;;;;0.60;0.30;;;25.30;37.60;;;;;;6104825;29;20043;-72
2023/08/04 01:16:31;;;;;;;0.13;0.13;;;25.40;37.60;;;;;;6104236;29;20046;-72
2023/08/04 01:19:33;;;;;;;2.58;0.50;;;25.40;37.60;;;;;;6121726;29;20433;-73
2023/08/04 01:22:34;;;;;;;1.00;0.40;;;25.40;37.70;;;;;;6119708;29;20039;-72
2023/08/04 01:25:36;;;;;;;1.40;0.30;;;25.30;37.70;;;;;;6121062;29;20070;-73
2023/08/04 01:28:37;;;;;;;2.72;0.50;;;25.30;37.70;;;;;;6121254;29;20457;-73
2023/08/04 01:31:38;;;;;;;0.73;0.30;;;25.30;37.80;;;;;;6104302;29;20729;-72
2023/08/04 01:34:41;;;;;;;0.77;0.28;;;25.20;37.90;;;;;;6104012;29;20051;-72
2023/08/04 01:37:46;;;;;;;1.08;0.32;;;25.20;38.00;;;;;;6120825;29;20028;-72
2023/08/04 01:40:48;;;;;;;0.57;0.35;;;25.10;38.10;;;;;;6103969;29;20028;-72
2023/08/04 01:43:49;;;;;;;1.25;0.40;;;25.00;38.30;;;;;;6121085;29;20066;-72
2023/08/04 01:46:50;;;;;;;0.30;0.20;;;24.90;38.40;;;;;;6103444;29;20126;-72
2023/08/04 01:49:51;;;;;;;0.40;0.20;;;24.90;38.60;;;;;;6088104;29;20042;-72
2023/08/04 01:52:51;;;;;;;0.45;0.32;;;24.90;38.70;;;;;;6120590;29;20114;-72
2023/08/04 01:55:52;;;;;;;1.48;0.20;;;24.90;38.70;;;;;;6119674;29;20042;-72
2023/08/04 01:58:53;;;;;;;0.35;0.28;;;24.90;38.80;;;;;;6119458;29;20047;-73
2023/08/04 02:01:55;;;;;;;0.65;0.30;;;24.90;38.90;;;;;;6119597;29;20091;-72
2023/08/04 02:04:56;;;;;;;2.85;0.38;;;24.90;38.90;;;;;;6118870;29;20032;-72
2023/08/04 02:07:57;;;;;;;0.73;0.20;;;24.90;39.40;;;;;;6120833;29;20362;-73
2023/08/04 02:11:02;;;;;;;1.17;0.35;;;24.80;40.10;;;;;;6088734;29;20040;-72
2023/08/04 02:14:03;;;;;;;0.40;0.40;;;24.60;39.70;;;;;;6103760;29;20732;-73
2023/08/04 02:17:04;;;;;;;1.60;0.30;;;24.60;40.40;;;;;;6103431;29;20039;-72
2023/08/04 02:20:05;;;;;;;3.05;0.20;;;24.50;41.20;;;;;;6121244;29;20051;-72
2023/08/04 02:23:06;;;;;;;1.30;0.30;;;24.40;41.30;;;;;;6103553;29;20122;-74
2023/08/04 02:26:07;;;;;;;1.27;0.35;;;24.30;41.30;;;;;;6103011;29;20370;-72
2023/08/04 02:29:08;;;;;;;0.40;0.30;;;24.30;41.10;;;;;;6102961;29;20039;-72
2023/08/04 02:32:10;;;;;;;6.22;0.47;;;24.30;41.10;;;;;;6120172;29;20081;-72
2023/08/04 02:35:11;;;;;;;1.00;0.40;;;24.30;40.90;;;;;;6103151;29;20149;-72
2023/08/04 02:38:12;;;;;;;1.08;0.30;;;24.40;40.90;;;;;;6087409;29;20111;-71
2023/08/04 02:41:13;;;;;;;3.20;0.50;;;24.50;41.00;;;;;;6120018;29;20080;-72
2023/08/04 02:44:14;;;;;;;1.70;0.40;;;24.60;41.00;;;;;;6102866;29;20102;-72
2023/08/04 02:47:15;;;;;;;0.80;0.30;;;24.50;41.70;;;;;;6119718;29;20102;-71
2023/08/04 02:50:16;;;;;;;1.27;0.52;;;24.50;42.90;;;;;;6094386;29;20035;-72
2023/08/04 02:53:17;;;;;;;1.15;0.32;;;24.50;42.80;;;;;;6101907;29;20123;-72
2023/08/04 02:56:18;;;;;;;1.77;0.30;;;24.40;43.20;;;;;;6101936;29;20042;-72
2023/08/04 02:59:19;;;;;;;0.38;0.22;;;24.30;43.50;;;;;;6119454;29;20067;-73
2023/08/04 03:02:20;;;;;;;0.30;0.30;;;24.20;43.50;;;;;;6119318;29;20043;-72
2023/08/04 03:05:21;;;;;;;2.92;0.73;;;24.10;43.40;;;;;;6101157;29;20036;-73
2023/08/04 03:08:22;;;;;;;0.35;0.30;;;24.10;43.00;;;;;;6119549;29;20030;-72
2023/08/04 03:11:25;;;;;;;0.63;0.50;;;24.00;42.90;;;;;;6119284;29;20523;-72
2023/08/04 03:14:26;;;;;;;1.35;0.60;;;24.00;42.90;;;;;;6119390;29;20566;-72
2023/08/04 03:17:28;;;;;;;1.30;0.35;;;24.00;43.10;;;;;;6118997;29;20093;-73
2023/08/04 03:20:30;;;;;;;1.95;0.45;;;23.90;43.40;;;;;;6119356;29;20043;-72
2023/08/04 03:23:31;;;;;;;0.40;0.40;;;23.80;43.80;;;;;;6119214;29;20027;-73
2023/08/04 03:26:32;;;;;;;0.35;0.32;;;23.70;44.20;;;;;;6119744;29;20047;-72
2023/08/04 03:29:32;;;;;;;3.13;0.55;;;23.70;44.40;;;;;;6119738;29;20039;-73
2023/08/04 03:32:33;;;;;;;1.20;0.60;;;23.60;44.90;;;;;;6119122;29;20142;-72
2023/08/04 03:35:34;;;;;;;3.45;0.70;;;23.50;45.50;;;;;;6118684;29;20032;-72
2023/08/04 03:38:35;;;;;;;3.22;0.57;;;23.40;47.00;;;;;;6119048;29;20437;-73
2023/08/04 03:41:36;;;;;;;0.40;0.40;;;23.30;47.30;;;;;;6119691;29;20269;-73
2023/08/04 03:44:36;;;;;;;0.30;0.25;;;23.20;47.70;;;;;;6119982;29;20055;-73
2023/08/04 03:47:37;;;;;;;1.05;0.65;;;23.20;48.00;;;;;;6119195;29;20066;-73
2023/08/04 03:50:38;;;;;;;0.57;0.30;;;23.20;47.90;;;;;;6118934;29;20074;-71
2023/08/04 03:53:39;;;;;;;1.10;0.35;;;23.10;47.90;;;;;;6111324;29;20042;-71
2023/08/04 03:56:40;;;;;;;1.17;0.43;;;23.00;47.90;;;;;;6118259;29;20043;-72
2023/08/04 03:59:40;;;;;;;0.30;0.30;;;23.00;48.10;;;;;;6118421;29;20068;-71
2023/08/04 04:02:41;;;;;;;1.17;0.70;;;23.00;48.00;;;;;;6116906;29;20043;-72
2023/08/04 04:05:42;;;;;;;1.20;0.32;;;23.00;48.00;;;;;;6118005;29;20485;-73
2023/08/04 04:08:44;;;;;;;1.02;0.30;;;23.10;48.00;;;;;;6116967;29;20047;-73
2023/08/04 04:11:45;;;;;;;1.48;0.45;;;23.20;47.90;;;;;;6118353;29;20078;-72
2023/08/04 04:14:46;;;;;;;1.88;0.50;;;23.20;47.60;;;;;;6118615;29;20035;-72
2023/08/04 04:17:47;;;;;;;0.98;0.50;;;23.30;47.70;;;;;;6105622;29;20720;-71
2023/08/04 04:20:48;;;;;;;1.00;0.43;;;23.30;47.40;;;;;;6123428;29;20038;-73
2023/08/04 04:23:49;;;;;;;1.15;0.40;;;23.30;47.20;;;;;;6110180;29;20032;-72
2023/08/04 04:26:49;;;;;;;2.42;0.60;;;23.40;47.30;;;;;;6081745;29;20490;-72
2023/08/04 04:29:50;;;;;;;1.67;0.70;;;23.30;47.30;;;;;;6115794;29;20498;-74
2023/08/04 04:32:51;;;;;;;1.23;0.50;;;23.30;47.40;;;;;;6105619;29;20040;-73
2023/08/04 04:35:52;;;;;;;6.18;0.50;;;23.20;47.40;;;;;;6105551;29;20031;-72
2023/08/04 04:38:53;;;;;;;1.05;0.55;;;23.20;47.30;;;;;;6105377;29;20040;-71
2023/08/04 04:41:53;;;;;;;1.10;0.50;;;23.30;47.20;;;;;;6122517;29;20035;-72
2023/08/04 04:44:55;;;;;;;1.70;0.80;;;23.30;46.90;;;;;;6122241;29;20035;-73
2023/08/04 04:47:56;;;;;;;0.25;0.25;;;23.40;46.90;;;;;;6122351;29;20147;-72
2023/08/04 04:50:57;;;;;;;0.73;0.52;;;23.30;46.90;;;;;;6122370;29;20031;-73
2023/08/04 04:53:58;;;;;;;6.13;0.65;;;23.70;47.20;;;;;;6122507;29;20058;-72
2023/08/04 04:56:58;;;;;;;1.13;0.52;;;23.30;47.10;;;;;;6122425;29;20043;-73
2023/08/04 04:59:59;;;;;;;0.90;0.50;;;23.20;47.20;;;;;;6122304;29;20031;-74
2023/08/04 05:03:04;;;;;;;1.48;0.50;;;23.20;47.50;;;;;;6104799;29;20167;-72
2023/08/04 05:06:05;;;;;;;2.33;0.55;;;23.10;47.50;;;;;;6104269;29;20035;-73
2023/08/04 05:09:07;;;;;;;1.13;0.32;;;23.10;47.20;;;;;;6104794;29;20663;-72
2023/08/04 05:12:07;;;;;;;0.25;0.20;;;23.10;46.90;;;;;;6122167;29;20118;-72
2023/08/04 05:15:08;;;;;;;1.08;0.35;;;23.20;46.70;;;;;;6121705;29;20051;-72
2023/08/04 05:18:09;;;;;;;0.50;0.35;;;23.20;46.40;;;;;;6121585;29;20324;-73
2023/08/04 05:21:11;;;;;;;2.83;0.63;;;23.30;46.30;;;;;;6121809;29;20043;-73
2023/08/04 05:24:12;;;;;;;2.58;0.57;;;23.30;46.10;;;;;;6103844;29;20070;-73
2023/08/04 05:27:14;;;;;;;0.22;0.20;;;23.40;45.90;;;;;;6120593;29;20024;-72
2023/08/04 05:30:15;;;;;;;2.10;0.40;;;23.50;45.70;;;;;;6120259;29;20035;-73
2023/08/04 05:33:16;;;;;;;2.20;0.45;;;23.60;45.50;;;;;;6104035;29;20043;-75
2023/08/04 05:36:17;;;;;;;0.85;0.60;;;23.70;45.30;;;;;;6121130;29;20346;-72
2023/08/04 05:39:18;;;;;;;0.22;0.22;;;23.80;45.10;;;;;;6104273;29;20031;-73
2023/08/04 05:42:19;;;;;;;0.20;0.20;;;23.80;44.90;;;;;;6103625;29;20042;-72
2023/08/04 05:45:20;;;;;;;2.35;0.35;;;23.90;44.80;;;;;;6103812;29;20047;-72
2023/08/04 05:48:21;;;;;;;1.95;0.28;;;23.90;44.80;;;;;;6104257;29;20043;-73
2023/08/04 05:51:22;;;;;;;0.28;0.20;;;24.00;44.70;;;;;;6121402;29;20102;-73
2023/08/04 05:54:23;;;;;;;1.65;0.57;;;24.00;44.40;;;;;;6097743;29;20141;-74
2023/08/04 05:57:24;;;;;;;1.77;0.38;;;24.10;44.30;;;;;;6080232;29;20044;-73
2023/08/04 06:00:25;;;;;;;0.47;0.30;;;24.10;44.10;;;;;;6116363;29;20064;-75
2023/08/04 06:03:25;;;;;;;1.67;0.40;;;24.10;44.10;;;;;;6121703;29;20495;-73
2023/08/04 06:06:27;;;;;;;1.73;0.40;;;24.10;43.90;;;;;;6121137;29;20039;-74
2023/08/04 06:09:28;;;;;;;0.68;0.68;;;24.00;44.00;;;;;;6121339;29;20040;-74
2023/08/04 06:12:30;;;;;;;1.10;0.52;;;23.90;44.20;;;;;;6120752;29;20209;-73
2023/08/04 06:15:30;;;;;;;1.98;0.70;;;23.90;44.20;;;;;;6120319;29;20052;-73
2023/08/04 06:18:31;;;;;;;0.63;0.38;;;23.90;43.70;;;;;;6119462;29;20055;-72
2023/08/04 06:21:35;;;;;;;0.93;0.90;;;24.00;43.70;;;;;;6105589;29;20047;-73
2023/08/04 06:24:36;;;;;;;1.08;0.30;;;24.10;43.60;;;;;;6095245;29;20175;-76
2023/08/04 06:27:37;;;;;;;2.00;0.40;;;24.20;43.40;;;;;;6096266;29;20442;-75
2023/08/04 06:30:38;;;;;;;1.55;0.40;;;24.30;43.00;;;;;;6079462;29;20044;-75
2023/08/04 06:33:39;;;;;;;0.32;0.28;;;24.40;42.70;;;;;;6079613;29;20126;-76
2023/08/04 06:36:44;;;;;;;0.65;0.38;;;24.40;42.50;;;;;;6095220;29;20062;-74
2023/08/04 06:39:45;;;;;;;0.32;0.20;;;24.50;42.40;;;;;;6113046;29;20029;-74
2023/08/04 06:42:46;;;;;;;1.50;0.65;;;24.50;42.10;;;;;;6103152;29;20043;-74
2023/08/04 06:45:47;;;;;;;2.22;0.47;;;24.50;42.20;;;;;;6102151;29;20119;-74
2023/08/04 06:48:48;;;;;;;1.05;0.32;;;24.50;42.00;;;;;;6120242;29;20039;-75
2023/08/04 06:51:49;;;;;;;2.20;0.50;;;24.60;42.40;;;;;;6116931;29;20063;-74
2023/08/04 06:54:51;;;;;;;0.65;0.52;;;24.60;41.70;;;;;;6078823;29;20039;-76
2023/08/04 06:57:52;;;;;;;0.40;0.10;;;24.70;41.50;;;;;;6096653;29;20044;-74
2023/08/04 07:00:52;;;;;;;0.20;0.20;;;24.70;41.40;;;;;;6096805;29;20154;-75
2023/08/04 07:03:53;;;;;;;0.82;0.30;;;24.70;41.20;;;;;;6078949;29;20095;-75
2023/08/04 07:06:56;;;;;;;2.33;0.30;;;24.70;41.10;;;;;;6094400;29;20028;-76
2023/08/04 07:09:57;;;;;;;0.30;0.15;;;24.80;41.10;;;;;;6078966;29;20038;-74
2023/08/04 07:12:58;;;;;;;0.10;0.10;;;24.70;41.10;;;;;;6096243;29;20438;-75
2023/08/04 07:15:59;;;;;;;0.38;0.30;;;24.70;41.00;;;;;;6078653;29;20137;-74
2023/08/04 07:19:00;;;;;;;0.65;0.20;;;24.90;40.90;;;;;;6102685;29;20032;-74
2023/08/04 07:22:00;;;;;;;1.90;0.43;;;25.00;40.80;;;;;;6102229;29;20062;-74
2023/08/04 07:25:01;;;;;;;0.63;0.20;;;25.10;40.60;;;;;;6101292;29;20043;-76
2023/08/04 07:28:03;;;;;;;1.50;0.38;;;25.10;41.10;;;;;;6101671;29;20036;-74
2023/08/04 07:31:12;;;;;;;0.30;0.17;;;25.10;40.60;;;;;;6101884;29;20058;-75
2023/08/04 07:34:13;;;;;;;0.50;0.20;;;25.20;40.50;;;;;;6086698;29;20036;-75
2023/08/04 07:37:14;;;;;;;5.78;0.50;;;25.30;40.40;;;;;;6100394;29;20043;-77
2023/08/04 07:40:15;;;;;;;5.57;0.57;;;25.30;40.60;;;;;;6085775;29;20050;-75
2023/08/04 07:43:16;;;;;;;1.00;0.50;;;25.30;40.70;;;;;;6084254;29;20043;-73
2023/08/04 07:46:24;;;;;;;0.40;0.40;;;25.30;40.80;;;;;;6092896;29;20413;-75
2023/08/04 07:49:25;;;;;;;;;;;25.20;41.70;;;;;;6095657;29;20524;-72
2023/08/04 07:52:26;;;;;;;0.45;0.30;;;25.10;41.30;;;;;;6110273;29;19921;-74
2023/08/04 07:55:27;;;;;;;0.43;0.22;;;25.00;41.40;;;;;;6092557;29;20127;-74
2023/08/04 07:58:28;;;;;;;5.07;0.32;;;24.90;41.80;;;;;;6123985;29;20225;-75
2023/08/04 08:01:28;;;;;;;0.20;0.20;;;24.70;42.20;;;;;;6108426;29;20507;-75
2023/08/04 08:04:29;;;;;;;0.75;0.50;;;24.50;42.80;;;;;;6125681;29;20134;-74
2023/08/04 08:07:30;;;;;;;0.28;0.20;;;24.40;43.30;;;;;;6125550;29;20050;-73
2023/08/04 08:10:31;;;;;;;0.32;0.30;;;24.30;43.60;;;;;;6108497;29;20110;-73
2023/08/04 08:13:31;;;;;;;0.60;0.30;;;24.30;43.80;;;;;;6126323;29;20559;-75
2023/08/04 08:16:32;;;;;;;0.20;0.20;;;24.40;43.80;;;;;;6108690;29;20040;-74
2023/08/04 08:19:33;;;;;;;0.82;0.30;;;24.40;44.10;;;;;;6124744;29;20123;-74
2023/08/04 08:22:37;;;;;;;4.15;1.38;;;24.40;44.30;;;;;;6109088;29;20086;-74
2023/08/04 08:25:38;;;;;;;0.57;0.32;;;24.40;44.40;;;;;;6126363;29;20063;-75
2023/08/04 08:28:39;;;;;;;0.10;0.10;;;24.40;44.40;;;;;;6093467;29;20264;-74
2023/08/04 08:31:40;;;;;;;0.10;0.10;;;24.50;44.50;;;;;;6109233;29;20075;-74
2023/08/04 08:34:41;;;;;;;0.80;0.20;;;24.50;44.40;;;;;;6125752;29;20036;-74
2023/08/04 08:37:42;;;;;;;1.90;0.30;;;24.30;44.40;;;;;;6108080;29;20059;-76
2023/08/04 08:40:43;;;;;;;0.38;0.30;;;24.20;44.90;;;;;;6125995;29;20042;-74
2023/08/04 08:43:44;;;;;;;0.65;0.25;;;24.00;45.70;;;;;;6107315;29;20032;-71
2023/08/04 08:46:45;;;;;;;0.20;0.10;;;23.90;46.20;;;;;;6101821;29;20559;-73
2023/08/04 08:49:55;;;;;;;0.10;0.10;;;23.80;46.50;;;;;;6084680;29;20050;-74
2023/08/04 08:53:08;;;;;;;0.10;0.10;;;23.80;46.60;;;;;;6114419;29;20118;-75
2023/08/04 08:56:10;;;;;;;2.13;0.17;;;23.70;47.20;;;;;;6107812;29;20075;-74
2023/08/04 08:59:11;;;;;;;5.68;0.35;;;23.70;47.50;;;;;;6109173;29;20039;-74
2023/08/04 09:02:13;;;;;;;0.50;0.15;;;23.80;47.50;;;;;;6090446;29;20039;-75
2023/08/04 09:05:14;;;;;;;0.05;0.05;;;24.00;47.30;;;;;;6125382;28;20066;-75
2023/08/04 09:08:15;;;;;;;0.20;0.20;;;24.30;46.80;;;;;;6133769;28;20132;-75
2023/08/04 09:11:16;;;;;;;1.50;0.50;;;24.40;46.30;;;;;;6107759;29;20031;-73
2023/08/04 09:14:17;;;;;;;0.10;0.10;;;24.40;46.20;;;;;;6104703;29;20087;-73
2023/08/04 09:17:34;;;;;;;0.03;0.03;;;24.40;47.00;;;;;;6122060;29;20401;-74
2023/08/04 09:20:34;;;;;;;0.10;0.10;;;23.90;47.50;;;;;;6105457;29;20032;-74
2023/08/04 09:23:37;;;;;;;1.48;0.40;;;23.80;47.90;;;;;;6105351;29;20519;-73
2023/08/04 09:26:46;;;;;;;0.32;0.32;;;23.90;47.80;;;;;;6122023;29;20024;-73
2023/08/04 09:30:00;;;;;;;1.05;0.40;;;23.90;47.50;;;;;;6121925;29;20129;-73
2023/08/04 09:33:01;;;;;;;2.20;1.42;;;24.00;47.50;;;;;;6121405;29;20778;-73
2023/08/04 09:36:10;;;;;;;0.47;0.47;;;24.00;47.50;;;;;;6103638;29;20156;-73
2023/08/04 09:39:12;;;;;;;2.15;0.40;;;24.10;47.50;;;;;;6121317;29;20024;-72
2023/08/04 09:42:15;;;;;;;0.47;0.47;;;24.00;47.40;;;;;;6114836;29;20059;-73
2023/08/04 09:45:17;;;;;;;3.28;0.70;;;24.00;47.50;;;;;;6097377;29;20080;-74
2023/08/04 09:48:18;;;;;;;2.25;0.22;;;24.00;47.60;;;;;;6097186;29;20028;-72
2023/08/04 09:51:19;;;;;;;0.98;0.65;;;24.00;47.50;;;;;;6096966;29;20074;-74
2023/08/04 09:54:20;;;;;;;0.80;0.50;;;24.00;47.60;;;;;;6118092;29;20578;-72
2023/08/04 09:57:23;;;;;;;2.47;0.70;;;24.00;47.80;;;;;;6119716;29;20067;-73
2023/08/04 10:00:24;;;;;;;1.75;0.65;;;24.10;47.90;;;;;;6120352;29;20114;-72
2023/08/04 10:03:24;;;;;;;0.40;0.38;;;24.20;47.90;;;;;;6120375;29;20471;-74
2023/08/04 10:06:26;;;;;;;0.20;0.20;;;24.20;47.90;;;;;;6119692;29;20031;-74
2023/08/04 10:09:31;;;;;;;0.20;0.20;;;24.10;48.10;;;;;;6120195;29;20110;-74
2023/08/04 10:12:32;;;;;;;0.45;0.45;;;24.00;48.30;;;;;;6120159;29;20024;-73
2023/08/04 10:15:34;;;;;;;3.63;0.70;;;24.00;48.20;;;;;;6119637;29;20190;-73
2023/08/04 10:18:55;;;;;;;2.30;0.85;;;24.10;48.20;;;;;;6120073;29;20036;-73
2023/08/04 10:22:10;;;;;;;1.60;0.55;;;24.20;48.20;;;;;;6097587;29;20032;-72
2023/08/04 10:25:15;;;;;;;1.90;0.60;;;24.20;48.00;;;;;;6079307;29;20115;-73
2023/08/04 10:28:17;;;;;;;0.90;0.38;;;24.30;47.70;;;;;;6096484;29;20036;-73
2023/08/04 10:31:18;;;;;;;1.48;0.55;;;24.30;47.50;;;;;;6107173;29;20042;-73
2023/08/04 10:34:31;;;;;;;0.30;0.30;;;24.30;47.40;;;;;;6120140;29;20031;-74
2023/08/04 10:37:48;;;;;;;8.13;0.63;;;24.20;47.70;;;;;;6102066;29;20042;-73
2023/08/04 10:41:05;;;;;;;0.25;0.17;;;24.20;48.40;;;;;;6120223;29;20126;-74
2023/08/04 10:44:09;;;;;;;1.77;0.38;;;24.00;48.70;;;;;;6098443;29;20362;-73
2023/08/04 10:47:11;;;;;;;0.40;0.20;;;23.90;49.20;;;;;;6095906;29;20083;-74
2023/08/04 10:50:14;;;;;;;0.28;0.28;;;23.70;49.80;;;;;;6096106;29;20137;-75
2023/08/04 10:53:15;;;;;;;1.15;0.68;;;23.60;50.50;;;;;;6110504;29;20114;-75
2023/08/04 10:56:21;;;;;;;0.30;0.20;;;23.50;50.80;;;;;;6118819;29;20047;-74
2023/08/04 10:59:22;;;;;;;0.28;0.28;;;23.30;51.40;;;;;;6086409;29;20071;-75
2023/08/04 11:02:24;;;;;;;0.28;0.28;;;23.20;51.80;;;;;;6086867;29;20049;-75
2023/08/04 11:05:26;;;;;;;0.77;0.30;;;23.20;52.20;;;;;;6119341;29;20032;-75
2023/08/04 11:08:27;;;;;;;4.20;0.40;;;23.10;52.60;;;;;;6119464;29;20024;-74
2023/08/04 11:11:29;;;;;;;0.65;0.30;;;23.00;53.20;;;;;;6086506;29;20040;-77
2023/08/04 11:14:29;;;;;;;0.45;0.20;;;22.90;53.60;;;;;;6118905;29;20119;-76
2023/08/04 11:17:30;;;;;;;0.30;0.30;;;22.70;54.30;;;;;;6119287;29;20145;-74
2023/08/04 11:20:31;;;;;;;0.70;0.40;;;22.40;55.10;;;;;;6102374;29;20107;-76
2023/08/04 11:23:32;;;;;;;0.77;0.55;;;22.10;55.70;;;;;;6120115;29;20038;-75
2023/08/04 11:26:33;;;;;;;0.73;0.40;;;21.80;56.30;;;;;;6118749;29;20035;-74
2023/08/04 11:29:34;;;;;;;0.30;0.30;;;21.70;56.70;;;;;;6102813;29;20046;-75
2023/08/04 11:32:35;;;;;;;1.27;0.40;;;21.60;57.50;;;;;;6119983;29;20495;-75
2023/08/04 11:35:35;;;;;;;0.38;0.13;;;21.50;57.70;;;;;;6119443;29;20507;-74
2023/08/04 11:38:37;;;;;;;0.30;0.25;;;21.40;58.20;;;;;;6119751;29;20382;-75
2023/08/04 11:41:38;;;;;;;4.07;0.35;;;21.40;58.40;;;;;;6102625;29;20036;-74
2023/08/04 11:44:40;;;;;;;2.95;0.52;;;21.70;58.90;;;;;;6118818;29;20040;-75
2023/08/04 11:47:42;;;;;;;7.78;0.75;;;21.20;58.90;;;;;;6101297;29;20035;-74
2023/08/04 11:50:43;;;;;;;4.65;1.52;;;21.10;59.30;;;;;;6119913;29;20058;-78
2023/08/04 11:53:46;;;;;;;3.45;1.48;;;21.00;59.60;;;;;;6114609;29;20036;-78
2023/08/04 11:57:01;;;;;;;0.43;0.30;;;20.90;60.30;;;;;;6120397;29;20785;-80
2023/08/04 12:00:04;;;;;;;2.38;0.40;;;20.90;60.70;;;;;;6103558;29;20054;-79
2023/08/04 12:03:13;;;;;;;0.40;0.40;;;20.90;61.10;;;;;;6120701;29;20137;-79
2023/08/04 12:06:19;;;;;;;0.45;0.40;;;20.80;61.50;;;;;;6120776;29;20028;-79
2023/08/04 12:09:20;;;;;;;3.15;0.40;;;20.70;61.60;;;;;;6124192;29;20040;-79
2023/08/04 12:12:38;;;;;;;1.48;0.57;;;20.70;61.80;;;;;;6106027;29;20042;-80
2023/08/04 12:15:52;;;;;;;0.20;0.20;;;20.80;61.90;;;;;;6104842;29;20139;-79
2023/08/04 12:19:03;;;;;;;0.77;0.40;;;20.80;62.10;;;;;;6114470;29;20298;-77
2023/08/04 12:22:05;;;;;;;2.08;0.60;;;20.90;62.00;;;;;;6108924;29;20041;-80
2023/08/04 12:25:07;;;;;;;0.52;0.25;;;20.90;61.90;;;;;;6131676;29;21318;-79
2023/08/04 12:28:11;;;;;;;1.23;0.30;;;20.90;62.10;;;;;;6128251;28;20031;-78
2023/08/04 12:31:12;;;;;;;0.28;0.28;;;20.80;62.10;;;;;;6131243;28;20039;-79
2023/08/04 12:34:13;;;;;;;0.25;0.20;;;20.80;62.10;;;;;;6110106;29;20027;-78
2023/08/04 12:37:15;;;;;;;0.65;0.32;;;20.80;62.10;;;;;;6107322;29;20039;-79
2023/08/04 12:40:16;;;;;;;0.17;0.17;;;20.80;62.40;;;;;;6110232;29;20111;-77
2023/08/04 12:43:17;;;;;;;0.82;0.10;;;20.70;62.50;;;;;;6110586;29;20881;-79
2023/08/04 12:46:18;;;;;;;0.32;0.30;;;20.60;63.20;;;;;;6109544;29;20485;-79
2023/08/04 12:49:19;;;;;;;0.40;0.20;;;20.40;63.70;;;;;;6106193;29;20072;-73
2023/08/04 12:52:20;;;;;;;0.90;0.50;;;20.30;64.60;;;;;;6104466;29;20054;-74
2023/08/04 12:55:21;;;;;;;0.52;0.35;;;20.20;65.30;;;;;;6121538;29;20485;-73
2023/08/04 12:58:22;;;;;;;0.20;0.20;;;20.10;65.80;;;;;;6121321;29;20035;-72
2023/08/04 13:01:23;;;;;;;0.30;0.30;;;20.00;66.30;;;;;;6121172;29;20067;-73
2023/08/04 13:04:23;;;;;;;0.47;0.30;;;20.00;66.50;;;;;;6120878;29;20143;-72
2023/08/04 13:07:25;;;;;;;0.85;0.40;;;19.90;67.00;;;;;;6103813;29;20075;-72
2023/08/04 13:10:26;;;;;;;1.15;0.40;;;19.90;67.50;;;;;;6121411;29;20154;-71
2023/08/04 13:13:27;;;;;;;0.52;0.50;;;19.90;67.80;;;;;;6121329;29;20035;-72
2023/08/04 13:16:28;;;;;;;1.50;0.68;;;19.90;68.00;;;;;;6121281;29;20058;-75
2023/08/04 13:19:31;;;;;;;1.17;0.40;;;19.90;68.00;;;;;;6103917;29;20031;-78
2023/08/04 13:22:32;;;;;;;0.45;0.45;;;19.90;67.90;;;;;;6105141;29;20083;-78
2023/08/04 13:25:40;;;;;;;0.63;0.40;;;19.90;67.80;;;;;;6087864;29;20063;-77
2023/08/04 13:28:41;;;;;;;4.93;0.68;;;19.80;67.90;;;;;;6104317;29;20051;-76
2023/08/04 13:31:42;;;;;;;0.75;0.63;;;19.70;68.10;;;;;;6095793;28;20438;-76
2023/08/04 13:34:50;;;;;;;2.00;0.80;;;19.70;68.70;;;;;;6110826;29;20481;-74
2023/08/04 13:37:52;;;;;;;0.70;0.70;;;19.60;68.90;;;;;;6129209;28;20420;-77
2023/08/04 13:40:53;;;;;;;4.07;0.77;;;19.70;69.20;;;;;;6132331;28;20082;-75
2023/08/04 13:43:55;;;;;;;1.90;0.80;;;19.80;69.10;;;;;;6124689;28;20027;-77
2023/08/04 13:46:57;;;;;;;2.15;0.80;;;19.90;68.70;;;;;;6126476;29;20631;-78
2023/08/04 13:49:58;;;;;;;1.77;0.90;;;20.20;68.20;;;;;;6113017;29;20019;-77
2023/08/04 13:52:59;;;;;;;0.70;0.70;;;20.40;67.40;;;;;;6130048;29;20442;-77
2023/08/04 13:56:29;;;;;;;1.05;0.60;;;20.60;66.40;;;;;;6110579;29;20039;-77
2023/08/04 13:59:29;;;;;;;2.83;0.82;;;20.80;65.70;;;;;;6105856;29;20044;-77
2023/08/04 14:02:40;;;;;;;0.63;0.60;;;21.10;64.50;;;;;;6116698;29;20409;-76
2023/08/04 14:05:54;;;;;;;2.00;0.80;;;21.40;63.10;;;;;;6101666;29;20036;-78
2023/08/04 14:08:55;;;;;;;1.38;0.90;;;22.10;62.70;;;;;;6122617;29;20042;-77
2023/08/04 14:11:55;;;;;;;1.05;0.50;;;23.60;58.60;;;;;;6092181;29;20043;-77
2023/08/04 14:14:56;;;;;;;4.68;0.85;;;24.70;55.40;;;;;;6107419;28;20802;-77
2023/08/04 14:17:57;;;;;;;0.80;0.63;;;25.40;54.30;;;;;;6112665;29;20065;-76
2023/08/04 14:20:59;;;;;;;0.60;0.60;;;26.60;51.70;;;;;;6109591;29;20081;-76
2023/08/04 14:24:00;;;;;;;2.47;0.80;;;28.00;48.80;;;;;;6121011;29;20081;-79
2023/08/04 14:27:02;;;;;;;0.80;0.60;;;28.90;45.40;;;;;;6114839;29;20031;-77
2023/08/04 14:30:03;;;;;;;1.90;1.08;;;29.70;43.40;;;;;;6116723;29;20031;-74
2023/08/04 14:33:04;;;;;;;2.20;0.80;;;29.60;42.10;;;;;;6130655;29;20051;-77
2023/08/04 14:36:05;;;;;;;7.15;0.70;;;29.30;42.90;;;;;;6104565;28;20045;-77
2023/08/04 14:39:06;;;;;;;2.03;0.88;;;29.40;42.90;;;;;;6099384;29;20034;-76
2023/08/04 14:42:07;;;;;;;0.52;0.52;;;29.60;42.00;;;;;;6114345;29;20149;-78
2023/08/04 14:45:10;;;;;;;3.55;0.85;;;29.30;41.70;;;;;;6117406;29;20027;-75
2023/08/04 14:48:13;;;;;;;0.80;0.60;;;29.10;42.10;;;;;;6125678;28;20092;-76
2023/08/04 14:51:14;;;;;;;3.53;0.82;;;29.20;42.10;;;;;;6102090;29;20099;-77
2023/08/04 14:54:15;;;;;;;2.10;0.77;;;29.10;42.30;;;;;;6113466;29;20027;-77
2023/08/04 14:57:16;;;;;;;3.15;0.60;;;28.60;43.20;;;;;;6111650;28;20768;-77
2023/08/04 15:00:17;;;;;;;1.10;0.70;;;28.20;43.80;;;;;;6103555;29;20046;-77
2023/08/04 15:03:18;;;;;;;1.08;0.88;;;27.50;44.40;;;;;;6110555;28;20035;-77
2023/08/04 15:06:20;;;;;;;1.40;0.65;;;27.00;45.50;;;;;;6128341;28;20086;-79
2023/08/04 15:09:21;;;;;;;1.67;0.77;;;26.60;46.10;;;;;;6146289;28;20066;-76
2023/08/04 15:12:24;;;;;;;1.52;0.90;;;26.20;46.70;;;;;;6119323;29;20501;-77
2023/08/04 15:15:25;;;;;;;6.90;0.60;;;25.90;47.50;;;;;;6104387;29;20044;-76
2023/08/04 15:18:26;;;;;;;0.82;0.70;;;25.70;47.90;;;;;;6088358;29;20031;-75
2023/08/04 15:21:27;;;;;;;2.97;0.88;;;25.50;48.10;;;;;;6087481;29;20194;-75
2023/08/04 15:24:34;;;;;;;1.25;0.70;;;25.30;48.30;;;;;;6087252;29;20504;-76
2023/08/04 15:27:35;;;;;;;0.57;0.50;;;25.00;48.80;;;;;;6120403;29;20721;-77
2023/08/04 15:30:36;;;;;;;2.55;0.90;;;24.80;49.10;;;;;;6102680;29;20035;-77
2023/08/04 15:33:37;;;;;;;0.70;0.50;;;24.50;49.50;;;;;;6105266;29;20027;-76
2023/08/04 15:36:38;;;;;;;7.80;1.13;;;24.30;50.00;;;;;;6100067;29;21111;-75
2023/08/04 15:39:39;;;;;;;1.15;0.90;;;24.10;50.60;;;;;;6101958;29;20112;-76
2023/08/04 15:42:40;;;;;;;1.75;1.00;;;24.00;50.90;;;;;;6101197;29;20106;-73
2023/08/04 15:45:41;;;;;;;1.40;0.70;;;23.90;51.10;;;;;;6118030;29;20035;-76
2023/08/04 15:48:42;;;;;;;3.80;0.60;;;23.80;51.30;;;;;;6101408;29;20114;-76